LIPZ Airport Information

Runway Information
Runway 04L Length 9121 ft width 148 ft
Elevation 7 ft Threshold 308 ft Heading 42
Runway 22R Length 9121 ft Width 148 ft
Elevation 7 ft Threshold 0 ft Heading 222
Runway 04R Length 10827 ft width 148 ft
Elevation 7 ft Threshold 0 ft Heading 42
Runway 22L Length 10827 ft Width 148 ft
Elevation 7 ft Threshold 0 ft Heading 222
Airport Frequencies
Type APP Name APP Frequency 118.9 MHZ
Type ATIS Name ATIS Frequency 122.225 MHZ
Type GND Name GND Frequency 121.7 MHZ
Type TWR Name TWR Frequency 120.2 MHZ
Airport Navaids
Type VOR-DME Name Tessera Frequency 115300 KHZ
Type NDB Name Venezia Frequency 379 KHZ
Airport Weather Information & NOTAM
ADDS - METARS form results

(1829 UTC 17 October 2018)
Data provider http://aviationweather.gov/metar/data/
 
METAR text: LIPZ 171820Z 01006KT 9999 SCT070 18/15 Q1018 NOSIG
Conditions at: LIPZ (VENEZIA/TESSERA , IT) observed 1820 UTC 17 October 2018
Temperature: 18.0°C (64°F)
Dewpoint: 15.0°C (59°F) [RH = 83%]
Pressure (altimeter): 30.06 inches Hg (1018.0 mb)
Winds: from the N (10 degrees) at 7 MPH (6 knots; 3.1 m/s)
Visibility: 6 or more miles (10+ km)
Ceiling: at least 12,000 feet AGL
Clouds: scattered clouds at 7000 feet AGL
Weather: no significant weather observed at this time

METAR text: LIPZ 171750Z 03004KT 9999 FEW040 SCT065 18/15 Q1018 NOSIG
Conditions at: LIPZ (VENEZIA/TESSERA , IT) observed 1750 UTC 17 October 2018
Temperature: 18.0°C (64°F)
Dewpoint: 15.0°C (59°F) [RH = 83%]
Pressure (altimeter): 30.06 inches Hg (1018.0 mb)
Winds: from the NNE (30 degrees) at 5 MPH (4 knots; 2.1 m/s)
Visibility: 6 or more miles (10+ km)
Ceiling: at least 12,000 feet AGL
Clouds: few clouds at 4000 feet AGL
scattered clouds at 6500 feet AGL
Weather: no significant weather observed at this time

Forecast for: LIPZ (VENEZIA/TESSERA , IT)
Text: TAF LIPZ 171700Z 1718/1824 04006KT 9999 SCT040
Forecast period: 1800 UTC 17 October 2018 to 0000 UTC 19 October 2018
Forecast type: FROM: standard forecast or significant change
Winds: from the NE (40 degrees) at 7 MPH (6 knots; 3.1 m/s)
Visibility: 6 or more miles 10+ km)
Ceiling: at least 12,000 feet AGL
Clouds: scattered clouds at 4000 feet AGL
Weather: no significant weather forecast for this period
Text: TEMPO 1802/1807 3000 BR
Forecast period: 0200 to 0700 UTC 18 October 2018
Forecast type: TEMPORARY: The following changes expected for less than half the time period
Visibility: 1.86 miles (2.99 km)
Ceiling: unknown
Clouds: missing
Weather: BR  (mist)